Thorco Crystal — V2BP9 — position and weather

sailwx.info

Track history (hours):
 
Tides and Currents Weather Stations Pressure Air Temp Water Temp Dewpoint Dewpoint Depression Visibility Wind Speed Wind Dir Waves Ship Positions

Thorco Crystal

Last reported at 2014-Jul-16 01:27 UTC. Time now 2014-Jul-22 15:26 UTC.
Position N 37°48' E 122°57'.

Length 145 m; draft 5.5 m.

Type: Cargo ship. MMSI: 304736000.

Date/timePositionNaut miles runAvg speedWind from/ knotsBaromVisibWave heightAir tempDewpointWater temp
2014-Jul-16 01:27N 37°48' E 122°57'20713.6
2014-Jul-15 10:12N 38°39' E 118°41'3211.5
2014-Jul-15 07:26N 38°52' E 118°04'910.3
2014-Jul-15 06:33N 38°55' E 117°53'8 7.3
2014-Jul-15 05:31N 38°58' E 117°44'0 0.0
2014-Jul-15 04:31N 38°58' E 117°44'0 0.0
2014-Jul-15 03:22N 38°58' E 117°44'0 0.0
2014-Jul-15 02:28N 38°58' E 117°44'0 0.0
2014-Jul-15 01:28N 38°58' E 117°44'0 0.0
2014-Jul-15 00:28N 38°58' E 117°44'0 0.0
2014-Jul-14 23:28N 38°58' E 117°44'0 0.0
2014-Jul-14 22:28N 38°58' E 117°44'0 0.0
2014-Jul-14 21:28N 38°58' E 117°44'0 0.0
2014-Jul-14 20:28N 38°58' E 117°44'0 0.0
2014-Jul-14 19:28N 38°58' E 117°44'0 0.0
2014-Jul-14 18:28N 38°58' E 117°44'0 0.0
2014-Jul-14 16:10N 38°58' E 117°44'0 0.0
2014-Jul-14 15:28N 38°58' E 117°44'0 0.0
2014-Jul-14 14:22N 38°58' E 117°44'0 0.0
2014-Jul-14 13:28N 38°58' E 117°44'0 0.0
2014-Jul-14 12:28N 38°58' E 117°44'0 0.0
2014-Jul-14 11:28N 38°58' E 117°44'0 0.0
2014-Jul-14 10:28N 38°58' E 117°44'0 0.0
2014-Jul-14 09:28N 38°58' E 117°44'0 0.0
2014-Jul-14 08:28N 38°58' E 117°44'0 0.0
2014-Jul-14 07:28N 38°58' E 117°44'0 0.0
2014-Jul-14 06:28N 38°58' E 117°44'0 0.0
2014-Jul-14 05:22N 38°58' E 117°44'0 0.0
2014-Jul-14 04:28N 38°58' E 117°44'0 0.0
2014-Jul-14 03:28N 38°58' E 117°44'0 0.0
2014-Jul-14 02:28N 38°58' E 117°44'0 0.0
2014-Jul-14 01:28N 38°58' E 117°44'0 0.0
2014-Jul-14 00:28N 38°58' E 117°44'0 0.0
2014-Jul-13 23:22N 38°58' E 117°44'0 0.0
2014-Jul-13 22:28N 38°58' E 117°44'0 0.0
2014-Jul-13 21:28N 38°58' E 117°44'0 0.0
2014-Jul-13 20:28N 38°58' E 117°44'0 0.0
2014-Jul-13 19:28N 38°58' E 117°44'0 0.0
2014-Jul-13 18:28N 38°58' E 117°44'0 0.0
2014-Jul-13 17:28N 38°58' E 117°44'0 0.0
2014-Jul-13 16:28N 38°58' E 117°44'0 0.0
2014-Jul-13 15:28N 38°58' E 117°44'0 0.0
2014-Jul-13 14:28N 38°58' E 117°44'0 0.0
2014-Jul-13 13:28N 38°58' E 117°44'0 0.0
2014-Jul-13 12:28N 38°58' E 117°44'0 0.0
2014-Jul-13 11:28N 38°58' E 117°44'0 0.0
2014-Jul-13 10:28N 38°58' E 117°44'0 0.0
2014-Jul-13 09:28N 38°58' E 117°44'0 0.0
2014-Jul-13 08:28N 38°58' E 117°44'0 0.0
2014-Jul-13 07:28N 38°58' E 117°44'0 0.0
2014-Jul-13 06:28N 38°58' E 117°44'0 0.0
2014-Jul-13 05:33N 38°58' E 117°44'8 7.6
2014-Jul-13 04:34N 38°55' E 117°53'7 6.8
2014-Jul-13 03:30N 38°53' E 118°02'5 4.7
2014-Jul-13 02:23N 38°49' E 118°07'11511.7
2014-Jul-12 16:32N 38°41' E 120°34'59 1.7
2014-Jul-11 06:27N 39°01' E 121°45'0 0.0
2014-Jul-11 05:27N 39°01' E 121°45'0 0.0
2014-Jul-11 04:33N 39°01' E 121°45'0 0.0
2014-Jul-11 03:33N 39°01' E 121°45'0 0.0
2014-Jul-11 02:33N 39°01' E 121°45'0 0.0
2014-Jul-11 01:33N 39°01' E 121°45'0 0.0
2014-Jul-11 00:33N 39°01' E 121°45'0 0.0
2014-Jul-10 23:33N 39°01' E 121°45'0 0.0
2014-Jul-10 22:33N 39°01' E 121°45'0 0.0
2014-Jul-10 21:33N 39°01' E 121°45'0 0.0
2014-Jul-10 20:33N 39°01' E 121°45'0 0.0
2014-Jul-10 19:33N 39°01' E 121°45'0 0.0
2014-Jul-10 13:27N 39°01' E 121°45'0 0.0
2014-Jul-10 05:26N 39°01' E 121°45'2 2.5
2014-Jul-10 04:29N 38°59' E 121°47'7 7.5
2014-Jul-10 03:33N 38°52' E 121°48'9 9.0
2014-Jul-10 02:30N 38°52' E 121°60'0 0.0
2014-Jul-10 01:18N 38°52' E 121°60'0 0.0
2014-Jul-09 08:12N 38°52' E 121°60'4 5.6
2014-Jul-09 07:33N 38°51' E 122°04'  
2014-Jul-06 18:20N 36°41' E 123°48'6911.9
2014-Jul-06 12:30N 37°28' E 122°44'1313.9
2014-Jul-06 11:33N 37°34' E 122°30'1312.7
2014-Jul-06 10:34N 37°34' E 122°14'3 2.7
2014-Jul-06 09:32N 37°32' E 122°11'0 0.0
2014-Jul-06 08:26N 37°32' E 122°11'0 0.1
2014-Jul-06 07:32N 37°32' E 122°11'1 0.8
2014-Jul-06 06:33N 37°32' E 122°12'1010.1
2014-Jul-06 05:34N 37°35' E 122°24'1312.5
2014-Jul-06 04:33N 37°36' E 122°40'  
Track history (hours):
 
Tides and Currents Weather Stations Pressure Air Temp Water Temp Dewpoint Dewpoint Depression Visibility Wind Speed Wind Dir Waves Ship Positions

Thorco Crystal

Last reported at 2014-Jul-16 01:27 UTC. Time now 2014-Jul-22 15:26 UTC.
Position N 37°48' E 122°57'.

Length 145 m; draft 5.5 m.

Type: Cargo ship. MMSI: 304736000.

Date/timePositionNaut miles runAvg speedWind from/ knotsBaromVisibWave heightAir tempDewpointWater temp
2014-Jul-16 01:27N 37°48' E 122°57'20713.6
2014-Jul-15 10:12N 38°39' E 118°41'3211.5
2014-Jul-15 07:26N 38°52' E 118°04'910.3
2014-Jul-15 06:33N 38°55' E 117°53'8 7.3
2014-Jul-15 05:31N 38°58' E 117°44'0 0.0
2014-Jul-15 04:31N 38°58' E 117°44'0 0.0
2014-Jul-15 03:22N 38°58' E 117°44'0 0.0
2014-Jul-15 02:28N 38°58' E 117°44'0 0.0
2014-Jul-15 01:28N 38°58' E 117°44'0 0.0
2014-Jul-15 00:28N 38°58' E 117°44'0 0.0
2014-Jul-14 23:28N 38°58' E 117°44'0 0.0
2014-Jul-14 22:28N 38°58' E 117°44'0 0.0
2014-Jul-14 21:28N 38°58' E 117°44'0 0.0
2014-Jul-14 20:28N 38°58' E 117°44'0 0.0
2014-Jul-14 19:28N 38°58' E 117°44'0 0.0
2014-Jul-14 18:28N 38°58' E 117°44'0 0.0
2014-Jul-14 16:10N 38°58' E 117°44'0 0.0
2014-Jul-14 15:28N 38°58' E 117°44'0 0.0
2014-Jul-14 14:22N 38°58' E 117°44'0 0.0
2014-Jul-14 13:28N 38°58' E 117°44'0 0.0
2014-Jul-14 12:28N 38°58' E 117°44'0 0.0
2014-Jul-14 11:28N 38°58' E 117°44'0 0.0
2014-Jul-14 10:28N 38°58' E 117°44'0 0.0
2014-Jul-14 09:28N 38°58' E 117°44'0 0.0
2014-Jul-14 08:28N 38°58' E 117°44'0 0.0
2014-Jul-14 07:28N 38°58' E 117°44'0 0.0
2014-Jul-14 06:28N 38°58' E 117°44'0 0.0
2014-Jul-14 05:22N 38°58' E 117°44'0 0.0
2014-Jul-14 04:28N 38°58' E 117°44'0 0.0
2014-Jul-14 03:28N 38°58' E 117°44'0 0.0
2014-Jul-14 02:28N 38°58' E 117°44'0 0.0
2014-Jul-14 01:28N 38°58' E 117°44'0 0.0
2014-Jul-14 00:28N 38°58' E 117°44'0 0.0
2014-Jul-13 23:22N 38°58' E 117°44'0 0.0
2014-Jul-13 22:28N 38°58' E 117°44'0 0.0
2014-Jul-13 21:28N 38°58' E 117°44'0 0.0
2014-Jul-13 20:28N 38°58' E 117°44'0 0.0
2014-Jul-13 19:28N 38°58' E 117°44'0 0.0
2014-Jul-13 18:28N 38°58' E 117°44'0 0.0
2014-Jul-13 17:28N 38°58' E 117°44'0 0.0
2014-Jul-13 16:28N 38°58' E 117°44'0 0.0
2014-Jul-13 15:28N 38°58' E 117°44'0 0.0
2014-Jul-13 14:28N 38°58' E 117°44'0 0.0
2014-Jul-13 13:28N 38°58' E 117°44'0 0.0
2014-Jul-13 12:28N 38°58' E 117°44'0 0.0
2014-Jul-13 11:28N 38°58' E 117°44'0 0.0
2014-Jul-13 10:28N 38°58' E 117°44'0 0.0
2014-Jul-13 09:28N 38°58' E 117°44'0 0.0
2014-Jul-13 08:28N 38°58' E 117°44'0 0.0
2014-Jul-13 07:28N 38°58' E 117°44'0 0.0
2014-Jul-13 06:28N 38°58' E 117°44'0 0.0
2014-Jul-13 05:33N 38°58' E 117°44'8 7.6
2014-Jul-13 04:34N 38°55' E 117°53'7 6.8
2014-Jul-13 03:30N 38°53' E 118°02'5 4.7
2014-Jul-13 02:23N 38°49' E 118°07'11511.7
2014-Jul-12 16:32N 38°41' E 120°34'59 1.7
2014-Jul-11 06:27N 39°01' E 121°45'0 0.0
2014-Jul-11 05:27N 39°01' E 121°45'0 0.0
2014-Jul-11 04:33N 39°01' E 121°45'0 0.0
2014-Jul-11 03:33N 39°01' E 121°45'0 0.0
2014-Jul-11 02:33N 39°01' E 121°45'0 0.0
2014-Jul-11 01:33N 39°01' E 121°45'0 0.0
2014-Jul-11 00:33N 39°01' E 121°45'0 0.0
2014-Jul-10 23:33N 39°01' E 121°45'0 0.0
2014-Jul-10 22:33N 39°01' E 121°45'0 0.0
2014-Jul-10 21:33N 39°01' E 121°45'0 0.0
2014-Jul-10 20:33N 39°01' E 121°45'0 0.0
2014-Jul-10 19:33N 39°01' E 121°45'0 0.0
2014-Jul-10 13:27N 39°01' E 121°45'0 0.0
2014-Jul-10 05:26N 39°01' E 121°45'2 2.5
2014-Jul-10 04:29N 38°59' E 121°47'7 7.5
2014-Jul-10 03:33N 38°52' E 121°48'9 9.0
2014-Jul-10 02:30N 38°52' E 121°60'0 0.0
2014-Jul-10 01:18N 38°52' E 121°60'0 0.0
2014-Jul-09 08:12N 38°52' E 121°60'4 5.6
2014-Jul-09 07:33N 38°51' E 122°04'  
2014-Jul-06 18:20N 36°41' E 123°48'6911.9
2014-Jul-06 12:30N 37°28' E 122°44'1313.9
2014-Jul-06 11:33N 37°34' E 122°30'1312.7
2014-Jul-06 10:34N 37°34' E 122°14'3 2.7
2014-Jul-06 09:32N 37°32' E 122°11'0 0.0
2014-Jul-06 08:26N 37°32' E 122°11'0 0.1
2014-Jul-06 07:32N 37°32' E 122°11'1 0.8
2014-Jul-06 06:33N 37°32' E 122°12'1010.1
2014-Jul-06 05:34N 37°35' E 122°24'1312.5
2014-Jul-06 04:33N 37°36' E 122°40'  

Dump ship's entire track history